createdAt,value
2023-03-02T00:01:08.569Z,17.80
2023-03-02T00:03:43.262Z,17.98
2023-03-02T00:06:15.457Z,21.30
2023-03-02T00:08:48.415Z,20.90
2023-03-02T00:11:19.983Z,20.65
2023-03-02T00:13:51.980Z,20.98
2023-03-02T00:16:26.327Z,21.77
2023-03-02T00:18:58.918Z,20.23
2023-03-02T00:21:31.973Z,20.73
2023-03-02T00:24:04.095Z,20.80
2023-03-02T00:26:37.418Z,22.00
2023-03-02T00:29:09.457Z,20.75
2023-03-02T00:31:43.851Z,21.23
2023-03-02T00:34:17.136Z,21.02
2023-03-02T00:36:49.771Z,20.20
2023-03-02T00:39:21.992Z,20.42
2023-03-02T00:41:53.959Z,19.60
2023-03-02T00:44:26.158Z,20.95
2023-03-02T00:47:00.724Z,19.55
2023-03-02T00:49:33.194Z,21.02
2023-03-02T00:52:05.133Z,20.10
2023-03-02T00:55:15.931Z,20.23
2023-03-02T00:58:12.453Z,21.00
2023-03-02T01:00:53.433Z,20.42
2023-03-02T01:03:28.353Z,19.33
2023-03-02T01:06:01.061Z,19.92
2023-03-02T01:08:33.173Z,20.38
2023-03-02T01:11:05.516Z,19.67
2023-03-02T01:13:37.338Z,20.50
2023-03-02T01:16:10.431Z,19.88
2023-03-02T01:18:45.102Z,20.55
2023-03-02T01:21:19.334Z,20.55
2023-03-02T01:23:51.986Z,20.58
2023-03-02T01:26:24.214Z,19.90
2023-03-02T01:28:56.609Z,18.77
2023-03-02T01:31:30.168Z,20.20
2023-03-02T01:34:04.821Z,19.95
2023-03-02T01:36:37.364Z,19.63
2023-03-02T01:39:09.278Z,20.25
2023-03-02T01:41:41.671Z,20.20
2023-03-02T01:44:42.523Z,20.50
2023-03-02T01:47:19.419Z,21.13
2023-03-02T01:49:59.838Z,19.83
2023-03-02T01:52:35.092Z,21.30
2023-03-02T01:55:12.601Z,21.35
2023-03-02T01:57:49.864Z,19.98
2023-03-02T02:00:25.854Z,20.58
2023-03-02T02:03:09.699Z,20.63
2023-03-02T02:05:47.641Z,20.98
2023-03-02T02:08:20.119Z,21.17
2023-03-02T02:10:52.338Z,20.80
2023-03-02T02:13:24.742Z,21.83
2023-03-02T02:15:56.960Z,21.27
2023-03-02T02:18:29.915Z,21.55
2023-03-02T02:21:05.298Z,21.23
2023-03-02T02:23:43.524Z,20.70
2023-03-02T02:26:35.528Z,21.40
2023-03-02T02:29:14.837Z,20.23
2023-03-02T02:31:54.569Z,21.38
2023-03-02T02:34:35.835Z,20.67
2023-03-02T02:37:22.967Z,21.13
2023-03-02T02:40:58.042Z,20.75
2023-03-02T02:44:46.337Z,20.10
2023-03-02T02:47:24.214Z,20.20
2023-03-02T02:49:58.323Z,20.98
2023-03-02T02:52:32.194Z,21.17
2023-03-02T02:55:04.345Z,20.73
2023-03-02T02:57:36.122Z,22.02
2023-03-02T03:00:12.490Z,20.83
2023-03-02T03:02:48.554Z,21.40
2023-03-02T03:05:20.951Z,20.50
2023-03-02T03:07:53.452Z,21.45
2023-03-02T03:10:35.257Z,21.38
2023-03-02T03:13:06.854Z,20.90
2023-03-02T03:15:39.484Z,21.27
2023-03-02T03:18:13.768Z,22.30
2023-03-02T03:20:49.831Z,23.70
2023-03-02T03:23:22.124Z,22.35
2023-03-02T03:25:53.714Z,21.58
2023-03-02T03:28:24.885Z,22.63
2023-03-02T03:30:56.662Z,22.60
2023-03-02T03:33:33.464Z,23.00
2023-03-02T03:36:05.109Z,22.65
2023-03-02T03:38:36.786Z,23.05
2023-03-02T03:41:08.982Z,23.63
2023-03-02T03:43:41.814Z,22.80
2023-03-02T03:46:14.149Z,22.52
2023-03-02T03:48:48.068Z,22.95
2023-03-02T03:51:22.672Z,23.05
2023-03-02T03:54:00.473Z,24.17
2023-03-02T03:56:34.212Z,22.75
2023-03-02T03:59:10.820Z,23.70
2023-03-02T04:01:46.765Z,23.48
2023-03-02T04:04:23.914Z,23.25
2023-03-02T04:06:57.540Z,24.10
2023-03-02T04:09:32.298Z,23.20
2023-03-02T04:12:03.938Z,25.13
2023-03-02T04:14:35.519Z,24.23
2023-03-02T04:17:08.030Z,25.10
2023-03-02T04:19:45.912Z,25.27
2023-03-02T04:22:20.285Z,25.20
2023-03-02T04:24:52.488Z,25.40
2023-03-02T04:27:25.445Z,25.30
2023-03-02T04:29:57.368Z,24.98
2023-03-02T04:32:29.297Z,24.55
2023-03-02T04:35:02.832Z,24.35
2023-03-02T04:37:34.250Z,24.52
2023-03-02T04:40:09.163Z,25.13
2023-03-02T04:42:40.804Z,24.13
2023-03-02T04:45:15.721Z,24.20
2023-03-02T04:47:47.184Z,24.67
2023-03-02T04:50:20.914Z,23.55
2023-03-02T04:52:53.959Z,24.08
2023-03-02T04:55:28.876Z,25.20
2023-03-02T04:58:00.875Z,25.77
2023-03-02T05:00:35.519Z,24.40
2023-03-02T05:03:08.020Z,25.23
2023-03-02T05:05:42.575Z,25.92
2023-03-02T05:08:15.116Z,24.90
2023-03-02T05:10:46.676Z,26.15
2023-03-02T05:13:18.755Z,26.15
2023-03-02T05:15:51.930Z,27.35
2023-03-02T05:18:24.415Z,26.83
2023-03-02T05:20:58.848Z,27.42
2023-03-02T05:23:31.854Z,28.45
2023-03-02T05:26:03.356Z,29.70
2023-03-02T05:28:35.438Z,30.73
2023-03-02T05:31:07.452Z,29.42
2023-03-02T05:33:38.881Z,31.15
2023-03-02T05:36:12.550Z,31.23
2023-03-02T05:38:44.309Z,31.73
2023-03-02T05:41:15.253Z,33.90
2023-03-02T05:43:46.685Z,33.15
2023-03-02T05:46:18.169Z,33.15
2023-03-02T05:48:50.053Z,33.70
2023-03-02T05:51:23.639Z,35.42
2023-03-02T05:53:54.996Z,34.47
2023-03-02T05:56:25.923Z,36.65
2023-03-02T05:58:57.271Z,37.55
2023-03-02T06:01:28.120Z,38.63
2023-03-02T06:03:59.919Z,38.50
2023-03-02T06:06:34.196Z,39.70
2023-03-02T06:09:05.917Z,39.25
2023-03-02T06:11:36.793Z,40.90
2023-03-02T06:14:08.356Z,38.95
2023-03-02T06:16:39.295Z,40.25
2023-03-02T06:19:10.919Z,39.08
2023-03-02T06:21:44.413Z,38.88
2023-03-02T06:24:15.886Z,39.95
2023-03-02T06:26:47.144Z,38.03
2023-03-02T06:29:18.423Z,38.60
2023-03-02T06:31:49.766Z,38.47
2023-03-02T06:34:21.395Z,39.65
2023-03-02T06:36:55.315Z,39.13
2023-03-02T06:39:27.063Z,38.22
2023-03-02T06:41:59.492Z,38.97
2023-03-02T06:44:31.102Z,39.97
2023-03-02T06:47:02.473Z,38.03
2023-03-02T06:49:34.155Z,37.47
2023-03-02T06:52:08.231Z,38.03
2023-03-02T06:54:40.117Z,38.60
2023-03-02T06:57:11.581Z,38.45
2023-03-02T06:59:43.119Z,40.40
2023-03-02T07:02:14.952Z,40.70
2023-03-02T07:04:46.618Z,38.95
2023-03-02T07:07:20.232Z,38.15
2023-03-02T07:09:51.580Z,36.15
2023-03-02T07:12:22.447Z,36.40
2023-03-02T07:14:53.870Z,35.85
2023-03-02T07:17:24.649Z,35.55
2023-03-02T07:19:55.903Z,36.60
2023-03-02T07:22:29.576Z,34.78
2023-03-02T07:25:00.912Z,32.45
2023-03-02T07:27:31.937Z,34.22
2023-03-02T07:30:03.429Z,33.13
2023-03-02T07:32:34.641Z,31.77
2023-03-02T07:35:06.197Z,33.05
2023-03-02T07:37:39.789Z,30.13
2023-03-02T07:40:13.571Z,31.23
2023-03-02T07:42:44.459Z,31.70
2023-03-02T07:45:16.952Z,31.15
2023-03-02T07:47:47.977Z,32.17
2023-03-02T07:50:19.955Z,30.95
2023-03-02T07:52:53.597Z,30.85
2023-03-02T07:55:24.916Z,31.65
2023-03-02T07:57:55.962Z,29.52
2023-03-02T08:00:27.887Z,31.92
2023-03-02T08:02:58.938Z,27.27
2023-03-02T08:05:30.528Z,29.33
2023-03-02T08:08:04.179Z,28.25
2023-03-02T08:10:37.216Z,30.45
2023-03-02T08:13:10.320Z,30.33
2023-03-02T08:15:41.731Z,31.05
2023-03-02T08:18:15.091Z,29.42
2023-03-02T08:20:46.332Z,30.30
2023-03-02T08:23:19.869Z,30.02
2023-03-02T08:25:51.376Z,31.77
2023-03-02T08:28:23.061Z,29.75
2023-03-02T08:31:00.756Z,30.33
2023-03-02T08:33:33.186Z,30.52
2023-03-02T08:36:07.718Z,30.92
2023-03-02T08:38:41.794Z,30.65
2023-03-02T08:41:15.524Z,30.75
2023-03-02T08:43:46.869Z,29.45
2023-03-02T08:46:20.154Z,30.45
2023-03-02T08:48:52.764Z,30.77
2023-03-02T08:51:27.375Z,31.17
2023-03-02T08:54:00.878Z,30.30
2023-03-02T08:56:34.206Z,32.00
2023-03-02T08:59:08.053Z,30.25
2023-03-02T09:01:40.780Z,30.38
2023-03-02T09:04:13.586Z,31.40
2023-03-02T09:06:47.701Z,31.65
2023-03-02T09:09:21.468Z,33.15
2023-03-02T09:11:52.997Z,32.47
2023-03-02T09:14:27.403Z,33.38
2023-03-02T09:16:59.034Z,32.60
2023-03-02T09:19:30.333Z,31.80
2023-03-02T09:22:01.785Z,33.78
2023-03-02T09:24:35.974Z,31.15
2023-03-02T09:27:08.250Z,30.95
2023-03-02T09:29:39.526Z,32.95
2023-03-02T09:32:12.142Z,31.33
2023-03-02T09:34:43.544Z,29.48
2023-03-02T09:37:16.369Z,30.55
2023-03-02T09:39:50.242Z,30.15
2023-03-02T09:42:45.730Z,30.08
2023-03-02T09:45:28.444Z,30.20
2023-03-02T09:48:14.112Z,31.02
2023-03-02T11:50:55.593Z,21.02
2023-03-02T11:53:30.250Z,19.73
2023-03-02T11:56:00.893Z,20.67
2023-03-02T11:58:33.012Z,20.27
2023-03-02T12:01:06.330Z,20.02
2023-03-02T12:03:41.831Z,18.65
2023-03-02T12:06:30.078Z,21.13
2023-03-02T12:10:30.670Z,20.08
2023-03-02T12:13:05.941Z,20.27
2023-03-02T12:15:41.455Z,19.20
2023-03-02T12:18:27.998Z,18.65
2023-03-02T13:19:40.062Z,17.42
2023-03-02T13:22:15.060Z,17.52
2023-03-02T13:24:54.027Z,17.65
2023-03-02T13:27:26.560Z,17.08
2023-03-02T13:29:58.509Z,18.33
2023-03-02T13:32:31.984Z,16.88
2023-03-02T13:37:46.992Z,16.30
2023-03-02T13:40:40.790Z,17.02
2023-03-02T13:43:36.900Z,17.23
2023-03-02T13:46:27.907Z,17.08
2023-03-02T21:31:59.654Z,35.55
2023-03-02T21:34:32.917Z,29.83
2023-03-02T21:37:04.785Z,28.13
2023-03-02T21:39:37.542Z,26.83
2023-03-02T21:42:09.732Z,24.60
2023-03-02T21:44:42.057Z,26.88
2023-03-02T21:47:16.798Z,32.15
2023-03-02T21:49:48.806Z,31.83
2023-03-02T21:52:20.526Z,31.48
2023-03-02T21:54:52.863Z,34.38
2023-03-02T21:57:24.848Z,34.70
2023-03-02T21:59:57.788Z,36.05
2023-03-02T22:02:32.368Z,36.22
2023-03-02T22:05:04.856Z,36.35
2023-03-02T22:07:36.884Z,34.70
2023-03-02T22:10:11.219Z,32.38
2023-03-02T22:12:45.132Z,34.55
2023-03-02T22:15:21.550Z,31.70
2023-03-02T22:17:57.090Z,32.80
2023-03-02T22:20:29.942Z,30.15
2023-03-02T22:23:02.794Z,30.13
2023-03-02T22:25:35.106Z,27.50
2023-03-02T22:28:16.562Z,27.20
2023-03-02T22:30:48.811Z,26.25
2023-03-02T22:33:26.123Z,26.73
2023-03-02T22:36:05.164Z,26.75
2023-03-02T22:38:37.090Z,28.33
2023-03-02T22:41:13.533Z,28.23
2023-03-02T22:43:46.107Z,28.17
2023-03-02T22:46:22.065Z,26.42
2023-03-02T22:48:57.593Z,27.58
2023-03-02T22:51:33.209Z,27.05
2023-03-02T22:54:05.660Z,27.60
2023-03-02T22:59:51.725Z,33.00
2023-03-02T23:02:26.365Z,33.38
2023-03-02T23:05:03.533Z,32.13
2023-03-02T23:07:35.462Z,32.20
2023-03-02T23:10:07.630Z,30.85
2023-03-02T23:12:39.579Z,30.25
2023-03-02T23:15:20.269Z,29.80
2023-03-02T23:17:52.812Z,30.42
2023-03-02T23:20:30.037Z,27.88
2023-03-02T23:23:01.737Z,28.67
2023-03-02T23:25:45.370Z,28.33
2023-03-02T23:28:18.104Z,28.85
2023-03-02T23:30:50.517Z,30.52
2023-03-02T23:33:22.833Z,27.48
2023-03-02T23:35:57.887Z,25.45
2023-03-02T23:38:30.627Z,25.38
2023-03-02T23:41:02.703Z,26.45
2023-03-02T23:43:49.346Z,25.85
2023-03-02T23:46:24.645Z,24.75
2023-03-02T23:48:56.536Z,23.90
2023-03-02T23:51:31.604Z,22.73
2023-03-02T23:54:04.758Z,23.23
2023-03-02T23:56:37.134Z,23.23
2023-03-02T23:59:09.375Z,22.77
